sensor_id;sensor_type;location;lat;lon;timestamp;temperature;humidity
53286;DHT22;39171;45.550;12.074;2022-08-04T00:02:23;28.90;68.40
53286;DHT22;39171;45.550;12.074;2022-08-04T00:08:33;28.80;68.70
53286;DHT22;39171;45.550;12.074;2022-08-04T00:14:45;28.90;68.70
53286;DHT22;39171;45.550;12.074;2022-08-04T00:20:47;28.90;68.90
53286;DHT22;39171;45.550;12.074;2022-08-04T00:26:54;28.90;68.80
53286;DHT22;39171;45.550;12.074;2022-08-04T00:32:56;28.80;69.50
53286;DHT22;39171;45.550;12.074;2022-08-04T00:38:59;28.80;69.60
53286;DHT22;39171;45.550;12.074;2022-08-04T01:04:02;28.80;70.40
53286;DHT22;39171;45.550;12.074;2022-08-04T01:10:10;28.80;70.70
53286;DHT22;39171;45.550;12.074;2022-08-04T01:16:15;28.80;70.80
53286;DHT22;39171;45.550;12.074;2022-08-04T01:22:28;28.80;70.90
53286;DHT22;39171;45.550;12.074;2022-08-04T01:35:06;28.80;71.40
53286;DHT22;39171;45.550;12.074;2022-08-04T01:41:13;28.80;71.70
53286;DHT22;39171;45.550;12.074;2022-08-04T01:47:19;28.80;71.80
53286;DHT22;39171;45.550;12.074;2022-08-04T01:53:28;28.80;72.00
53286;DHT22;39171;45.550;12.074;2022-08-04T01:59:31;28.80;72.20
53286;DHT22;39171;45.550;12.074;2022-08-04T02:05:34;28.80;72.40
53286;DHT22;39171;45.550;12.074;2022-08-04T02:11:38;28.80;72.60
53286;DHT22;39171;45.550;12.074;2022-08-04T02:24:05;28.70;73.10
53286;DHT22;39171;45.550;12.074;2022-08-04T02:30:07;28.80;73.40
53286;DHT22;39171;45.550;12.074;2022-08-04T02:36:16;28.70;73.40
53286;DHT22;39171;45.550;12.074;2022-08-04T02:42:22;28.70;73.70
53286;DHT22;39171;45.550;12.074;2022-08-04T02:48:26;28.70;73.80
53286;DHT22;39171;45.550;12.074;2022-08-04T02:54:34;28.70;74.00
53286;DHT22;39171;45.550;12.074;2022-08-04T03:00:36;28.70;74.30
53286;DHT22;39171;45.550;12.074;2022-08-04T03:06:58;28.70;74.40
53286;DHT22;39171;45.550;12.074;2022-08-04T03:33:23;28.60;75.20
53286;DHT22;39171;45.550;12.074;2022-08-04T03:46:10;28.60;76.00
53286;DHT22;39171;45.550;12.074;2022-08-04T03:59:24;28.60;76.20
53286;DHT22;39171;45.550;12.074;2022-08-04T04:05:54;28.50;76.40
53286;DHT22;39171;45.550;12.074;2022-08-04T04:12:20;28.50;76.40
53286;DHT22;39171;45.550;12.074;2022-08-04T04:50:42;28.40;77.80
53286;DHT22;39171;45.550;12.074;2022-08-04T05:10:07;28.40;78.00
53286;DHT22;39171;45.550;12.074;2022-08-04T05:16:31;28.40;78.00
53286;DHT22;39171;45.550;12.074;2022-08-04T05:28:55;28.40;78.20
53286;DHT22;39171;45.550;12.074;2022-08-04T05:35:02;28.40;78.40
53286;DHT22;39171;45.550;12.074;2022-08-04T05:41:06;28.30;78.30
53286;DHT22;39171;45.550;12.074;2022-08-04T05:47:10;28.30;78.50
53286;DHT22;39171;45.550;12.074;2022-08-04T05:53:14;28.30;78.60
53286;DHT22;39171;45.550;12.074;2022-08-04T05:59:18;28.30;78.70
53286;DHT22;39171;45.550;12.074;2022-08-04T06:05:20;28.30;78.50
53286;DHT22;39171;45.550;12.074;2022-08-04T06:11:25;28.40;78.40
53286;DHT22;39171;45.550;12.074;2022-08-04T06:17:33;28.40;78.40
53286;DHT22;39171;45.550;12.074;2022-08-04T06:23:36;28.40;78.50
53286;DHT22;39171;45.550;12.074;2022-08-04T06:29:39;28.40;78.40
53286;DHT22;39171;45.550;12.074;2022-08-04T06:35:44;28.40;78.40
53286;DHT22;39171;45.550;12.074;2022-08-04T06:41:46;28.40;78.50
53286;DHT22;39171;45.550;12.074;2022-08-04T06:47:50;28.40;78.40
53286;DHT22;39171;45.550;12.074;2022-08-04T06:53:52;28.40;78.40
53286;DHT22;39171;45.550;12.074;2022-08-04T06:59:58;28.50;78.50
53286;DHT22;39171;45.550;12.074;2022-08-04T07:06:01;28.50;78.30
53286;DHT22;39171;45.550;12.074;2022-08-04T07:12:04;28.50;78.10
53286;DHT22;39171;45.550;12.074;2022-08-04T07:18:06;28.50;78.20
53286;DHT22;39171;45.550;12.074;2022-08-04T07:24:08;28.50;78.10
53286;DHT22;39171;45.550;12.074;2022-08-04T07:30:10;28.50;77.90
53286;DHT22;39171;45.550;12.074;2022-08-04T07:36:11;28.50;77.90
53286;DHT22;39171;45.550;12.074;2022-08-04T07:42:13;28.50;77.80
53286;DHT22;39171;45.550;12.074;2022-08-04T07:48:18;28.50;77.60
53286;DHT22;39171;45.550;12.074;2022-08-04T07:54:24;28.50;77.40
53286;DHT22;39171;45.550;12.074;2022-08-04T08:00:26;28.60;77.30
53286;DHT22;39171;45.550;12.074;2022-08-04T08:06:28;28.50;77.20
53286;DHT22;39171;45.550;12.074;2022-08-04T08:12:31;28.60;77.20
53286;DHT22;39171;45.550;12.074;2022-08-04T08:18:36;28.60;76.90
53286;DHT22;39171;45.550;12.074;2022-08-04T08:24:37;28.60;76.80
53286;DHT22;39171;45.550;12.074;2022-08-04T08:30:39;28.60;76.70
53286;DHT22;39171;45.550;12.074;2022-08-04T08:37:02;28.60;76.40
53286;DHT22;39171;45.550;12.074;2022-08-04T09:09:10;28.80;74.80
53286;DHT22;39171;45.550;12.074;2022-08-04T09:21:49;28.80;73.90
53286;DHT22;39171;45.550;12.074;2022-08-04T09:27:55;28.90;73.40
53286;DHT22;39171;45.550;12.074;2022-08-04T09:40:14;29.00;71.70
53286;DHT22;39171;45.550;12.074;2022-08-04T09:46:27;29.00;70.70
53286;DHT22;39171;45.550;12.074;2022-08-04T09:59:26;29.00;69.40
53286;DHT22;39171;45.550;12.074;2022-08-04T10:12:42;29.10;70.40
53286;DHT22;39171;45.550;12.074;2022-08-04T10:31:28;29.30;68.60
53286;DHT22;39171;45.550;12.074;2022-08-04T10:43:50;29.30;69.90
53286;DHT22;39171;45.550;12.074;2022-08-04T10:50:00;29.30;68.50
53286;DHT22;39171;45.550;12.074;2022-08-04T10:56:08;29.40;67.30
53286;DHT22;39171;45.550;12.074;2022-08-04T11:02:31;29.40;67.00
53286;DHT22;39171;45.550;12.074;2022-08-04T11:08:36;29.40;65.10
53286;DHT22;39171;45.550;12.074;2022-08-04T11:14:46;29.50;63.90
53286;DHT22;39171;45.550;12.074;2022-08-04T11:20:55;29.60;62.30
53286;DHT22;39171;45.550;12.074;2022-08-04T11:27:02;29.60;61.30
53286;DHT22;39171;45.550;12.074;2022-08-04T11:33:50;29.60;61.30
53286;DHT22;39171;45.550;12.074;2022-08-04T11:40:25;29.60;59.70
53286;DHT22;39171;45.550;12.074;2022-08-04T11:47:07;29.70;60.00
53286;DHT22;39171;45.550;12.074;2022-08-04T11:52:48;29.70;59.00
53286;DHT22;39171;45.550;12.074;2022-08-04T11:58:53;29.80;58.40
53286;DHT22;39171;45.550;12.074;2022-08-04T12:04:57;29.80;58.60
53286;DHT22;39171;45.550;12.074;2022-08-04T12:11:25;29.80;57.30
53286;DHT22;39171;45.550;12.074;2022-08-04T12:17:37;29.80;56.50
53286;DHT22;39171;45.550;12.074;2022-08-04T12:23:42;29.90;54.90
53286;DHT22;39171;45.550;12.074;2022-08-04T12:29:45;30.00;54.30
53286;DHT22;39171;45.550;12.074;2022-08-04T12:49:01;30.20;53.20
53286;DHT22;39171;45.550;12.074;2022-08-04T12:55:04;30.20;52.30
53286;DHT22;39171;45.550;12.074;2022-08-04T13:01:10;30.30;51.90
53286;DHT22;39171;45.550;12.074;2022-08-04T13:07:15;30.30;50.90
53286;DHT22;39171;45.550;12.074;2022-08-04T13:13:20;30.30;49.80
53286;DHT22;39171;45.550;12.074;2022-08-04T13:19:24;30.40;50.10
53286;DHT22;39171;45.550;12.074;2022-08-04T13:25:28;30.50;50.10
53286;DHT22;39171;45.550;12.074;2022-08-04T13:31:34;30.60;49.70
53286;DHT22;39171;45.550;12.074;2022-08-04T13:37:38;30.60;48.90
53286;DHT22;39171;45.550;12.074;2022-08-04T13:43:44;30.70;48.60
53286;DHT22;39171;45.550;12.074;2022-08-04T13:50:21;30.70;48.10
53286;DHT22;39171;45.550;12.074;2022-08-04T13:56:43;30.80;47.30
53286;DHT22;39171;45.550;12.074;2022-08-04T14:02:56;30.80;47.20
53286;DHT22;39171;45.550;12.074;2022-08-04T14:09:20;30.90;46.70
53286;DHT22;39171;45.550;12.074;2022-08-04T14:15:48;30.90;46.50
53286;DHT22;39171;45.550;12.074;2022-08-04T14:21:51;31.00;46.30
53286;DHT22;39171;45.550;12.074;2022-08-04T14:27:55;31.00;46.90
53286;DHT22;39171;45.550;12.074;2022-08-04T14:33:56;31.10;46.40
53286;DHT22;39171;45.550;12.074;2022-08-04T14:39:58;31.10;46.40
53286;DHT22;39171;45.550;12.074;2022-08-04T14:46:04;31.10;47.00
53286;DHT22;39171;45.550;12.074;2022-08-04T14:52:05;31.00;47.30
53286;DHT22;39171;45.550;12.074;2022-08-04T14:58:14;31.00;47.30
53286;DHT22;39171;45.550;12.074;2022-08-04T15:04:17;30.90;47.60
53286;DHT22;39171;45.550;12.074;2022-08-04T15:10:19;30.90;47.70
53286;DHT22;39171;45.550;12.074;2022-08-04T15:16:23;30.90;47.80
53286;DHT22;39171;45.550;12.074;2022-08-04T15:22:25;30.80;47.80
53286;DHT22;39171;45.550;12.074;2022-08-04T15:28:28;30.90;47.90
53286;DHT22;39171;45.550;12.074;2022-08-04T15:34:51;30.80;47.90
53286;DHT22;39171;45.550;12.074;2022-08-04T15:41:05;30.80;48.20
53286;DHT22;39171;45.550;12.074;2022-08-04T15:47:10;30.80;48.50
53286;DHT22;39171;45.550;12.074;2022-08-04T15:53:11;30.80;48.60
53286;DHT22;39171;45.550;12.074;2022-08-04T15:59:13;30.80;48.80
53286;DHT22;39171;45.550;12.074;2022-08-04T16:11:38;30.70;49.30
53286;DHT22;39171;45.550;12.074;2022-08-04T16:17:40;30.70;49.40
53286;DHT22;39171;45.550;12.074;2022-08-04T16:23:59;30.70;49.50
53286;DHT22;39171;45.550;12.074;2022-08-04T16:30:09;30.70;49.80
53286;DHT22;39171;45.550;12.074;2022-08-04T16:36:11;30.60;50.00
53286;DHT22;39171;45.550;12.074;2022-08-04T16:48:32;30.60;50.20
53286;DHT22;39171;45.550;12.074;2022-08-04T16:54:35;30.60;50.30
53286;DHT22;39171;45.550;12.074;2022-08-04T17:00:37;30.60;50.40
53286;DHT22;39171;45.550;12.074;2022-08-04T17:06:40;30.50;50.50
53286;DHT22;39171;45.550;12.074;2022-08-04T17:12:42;30.50;50.60
53286;DHT22;39171;45.550;12.074;2022-08-04T17:18:52;30.50;50.70
53286;DHT22;39171;45.550;12.074;2022-08-04T17:24:53;30.40;50.80
53286;DHT22;39171;45.550;12.074;2022-08-04T17:31:01;30.50;50.90
53286;DHT22;39171;45.550;12.074;2022-08-04T17:37:02;30.40;50.90
53286;DHT22;39171;45.550;12.074;2022-08-04T17:43:05;30.40;50.80
53286;DHT22;39171;45.550;12.074;2022-08-04T17:55:14;30.40;50.80
53286;DHT22;39171;45.550;12.074;2022-08-04T18:01:16;30.30;50.80
53286;DHT22;39171;45.550;12.074;2022-08-04T18:07:43;30.30;50.90
53286;DHT22;39171;45.550;12.074;2022-08-04T18:13:52;30.30;50.90
53286;DHT22;39171;45.550;12.074;2022-08-04T18:19:54;30.30;50.90
53286;DHT22;39171;45.550;12.074;2022-08-04T18:25:55;30.20;51.00
53286;DHT22;39171;45.550;12.074;2022-08-04T18:31:57;30.20;51.10
53286;DHT22;39171;45.550;12.074;2022-08-04T18:38:00;30.20;51.20
53286;DHT22;39171;45.550;12.074;2022-08-04T18:44:02;30.20;51.20
53286;DHT22;39171;45.550;12.074;2022-08-04T18:50:04;30.20;51.20
53286;DHT22;39171;45.550;12.074;2022-08-04T18:56:06;30.10;51.20
53286;DHT22;39171;45.550;12.074;2022-08-04T19:02:07;30.10;51.30
53286;DHT22;39171;45.550;12.074;2022-08-04T19:08:09;30.10;51.40
53286;DHT22;39171;45.550;12.074;2022-08-04T19:14:11;30.10;51.50
53286;DHT22;39171;45.550;12.074;2022-08-04T19:20:12;30.00;51.60
53286;DHT22;39171;45.550;12.074;2022-08-04T19:26:15;30.00;51.70
53286;DHT22;39171;45.550;12.074;2022-08-04T19:32:16;30.00;51.80
53286;DHT22;39171;45.550;12.074;2022-08-04T19:38:18;30.00;52.00
53286;DHT22;39171;45.550;12.074;2022-08-04T19:44:20;30.00;52.20
53286;DHT22;39171;45.550;12.074;2022-08-04T19:50:22;30.00;52.40
53286;DHT22;39171;45.550;12.074;2022-08-04T19:56:24;30.00;52.50
53286;DHT22;39171;45.550;12.074;2022-08-04T20:02:25;29.90;52.50
53286;DHT22;39171;45.550;12.074;2022-08-04T20:08:27;29.90;52.60
53286;DHT22;39171;45.550;12.074;2022-08-04T20:14:29;29.90;52.80
53286;DHT22;39171;45.550;12.074;2022-08-04T20:20:30;29.90;52.90
53286;DHT22;39171;45.550;12.074;2022-08-04T20:26:32;29.80;53.00
53286;DHT22;39171;45.550;12.074;2022-08-04T20:32:33;29.80;53.10
53286;DHT22;39171;45.550;12.074;2022-08-04T20:38:35;29.80;53.20
53286;DHT22;39171;45.550;12.074;2022-08-04T20:44:36;29.80;53.30
53286;DHT22;39171;45.550;12.074;2022-08-04T20:50:38;29.80;53.40
53286;DHT22;39171;45.550;12.074;2022-08-04T20:56:40;29.80;53.50
53286;DHT22;39171;45.550;12.074;2022-08-04T21:02:41;29.80;53.70
53286;DHT22;39171;45.550;12.074;2022-08-04T21:08:43;29.70;54.10
53286;DHT22;39171;45.550;12.074;2022-08-04T21:14:45;29.70;54.70
53286;DHT22;39171;45.550;12.074;2022-08-04T21:20:46;29.70;55.60
53286;DHT22;39171;45.550;12.074;2022-08-04T21:26:49;29.60;56.10
53286;DHT22;39171;45.550;12.074;2022-08-04T21:32:51;29.50;56.60
53286;DHT22;39171;45.550;12.074;2022-08-04T21:38:52;29.50;57.10
53286;DHT22;39171;45.550;12.074;2022-08-04T21:44:54;29.60;57.40
53286;DHT22;39171;45.550;12.074;2022-08-04T21:50:55;29.50;57.90
53286;DHT22;39171;45.550;12.074;2022-08-04T21:56:58;29.50;58.40
53286;DHT22;39171;45.550;12.074;2022-08-04T22:02:59;29.50;59.00
53286;DHT22;39171;45.550;12.074;2022-08-04T22:09:03;29.50;59.40
53286;DHT22;39171;45.550;12.074;2022-08-04T22:15:04;29.50;59.80
53286;DHT22;39171;45.550;12.074;2022-08-04T22:21:13;29.50;60.30
53286;DHT22;39171;45.550;12.074;2022-08-04T22:27:14;29.50;60.70
53286;DHT22;39171;45.550;12.074;2022-08-04T22:33:36;29.50;61.20
53286;DHT22;39171;45.550;12.074;2022-08-04T22:39:37;29.40;61.50
53286;DHT22;39171;45.550;12.074;2022-08-04T22:45:43;29.50;61.80
53286;DHT22;39171;45.550;12.074;2022-08-04T22:51:44;29.50;62.20
53286;DHT22;39171;45.550;12.074;2022-08-04T22:57:46;29.40;62.70
53286;DHT22;39171;45.550;12.074;2022-08-04T23:03:47;29.40;63.10
53286;DHT22;39171;45.550;12.074;2022-08-04T23:09:49;29.40;63.30
53286;DHT22;39171;45.550;12.074;2022-08-04T23:15:50;29.40;63.70
53286;DHT22;39171;45.550;12.074;2022-08-04T23:21:52;29.40;63.50
53286;DHT22;39171;45.550;12.074;2022-08-04T23:27:53;29.40;64.30
53286;DHT22;39171;45.550;12.074;2022-08-04T23:34:11;29.30;64.50
53286;DHT22;39171;45.550;12.074;2022-08-04T23:40:12;29.30;65.00
53286;DHT22;39171;45.550;12.074;2022-08-04T23:46:14;29.30;65.20
53286;DHT22;39171;45.550;12.074;2022-08-04T23:52:19;29.30;65.90
53286;DHT22;39171;45.550;12.074;2022-08-04T23:58:20;29.30;66.00
